sensor_id;sensor_type;location;lat;lon;timestamp;P1;durP1;ratioP1;P2;durP2;ratioP2
71423;SDS011;59240;51.370;-0.486;2023-07-24T00:04:39;4.35;;;1.67;;
71423;SDS011;59240;51.370;-0.486;2023-07-24T00:09:36;4.07;;;1.77;;
71423;SDS011;59240;51.370;-0.486;2023-07-24T00:14:33;6.43;;;2.20;;
71423;SDS011;59240;51.370;-0.486;2023-07-24T00:19:32;4.45;;;2.33;;
71423;SDS011;59240;51.370;-0.486;2023-07-24T00:24:30;6.45;;;2.10;;
71423;SDS011;59240;51.370;-0.486;2023-07-24T00:29:28;6.43;;;2.88;;
71423;SDS011;59240;51.370;-0.486;2023-07-24T00:34:25;5.07;;;2.03;;
71423;SDS011;59240;51.370;-0.486;2023-07-24T00:39:24;4.75;;;2.20;;
71423;SDS011;59240;51.370;-0.486;2023-07-24T00:44:24;7.97;;;2.40;;
71423;SDS011;59240;51.370;-0.486;2023-07-24T00:49:24;3.38;;;1.98;;
71423;SDS011;59240;51.370;-0.486;2023-07-24T00:54:21;6.38;;;2.17;;
71423;SDS011;59240;51.370;-0.486;2023-07-24T00:59:19;6.13;;;2.40;;
71423;SDS011;59240;51.370;-0.486;2023-07-24T01:04:16;7.35;;;2.28;;
71423;SDS011;59240;51.370;-0.486;2023-07-24T01:09:13;5.97;;;2.08;;
71423;SDS011;59240;51.370;-0.486;2023-07-24T01:14:21;3.50;;;2.00;;
71423;SDS011;59240;51.370;-0.486;2023-07-24T01:24:23;7.50;;;1.90;;
71423;SDS011;59240;51.370;-0.486;2023-07-24T01:29:27;6.10;;;1.92;;
71423;SDS011;59240;51.370;-0.486;2023-07-24T01:34:24;4.63;;;2.15;;
71423;SDS011;59240;51.370;-0.486;2023-07-24T01:39:21;5.22;;;2.17;;
71423;SDS011;59240;51.370;-0.486;2023-07-24T01:44:18;5.65;;;1.58;;
71423;SDS011;59240;51.370;-0.486;2023-07-24T01:49:15;5.90;;;2.25;;
71423;SDS011;59240;51.370;-0.486;2023-07-24T01:54:12;3.75;;;1.70;;
71423;SDS011;59240;51.370;-0.486;2023-07-24T01:59:09;6.80;;;1.65;;
71423;SDS011;59240;51.370;-0.486;2023-07-24T02:04:06;7.53;;;2.30;;
71423;SDS011;59240;51.370;-0.486;2023-07-24T02:09:02;6.20;;;2.10;;
71423;SDS011;59240;51.370;-0.486;2023-07-24T02:13:59;5.30;;;2.53;;
71423;SDS011;59240;51.370;-0.486;2023-07-24T02:18:56;3.38;;;1.67;;
71423;SDS011;59240;51.370;-0.486;2023-07-24T02:23:53;7.32;;;1.90;;
71423;SDS011;59240;51.370;-0.486;2023-07-24T02:28:50;4.88;;;1.80;;
71423;SDS011;59240;51.370;-0.486;2023-07-24T02:33:47;6.32;;;1.95;;
71423;SDS011;59240;51.370;-0.486;2023-07-24T02:38:44;5.75;;;1.75;;
71423;SDS011;59240;51.370;-0.486;2023-07-24T02:43:41;4.47;;;1.77;;
71423;SDS011;59240;51.370;-0.486;2023-07-24T02:48:38;5.50;;;1.63;;
71423;SDS011;59240;51.370;-0.486;2023-07-24T02:53:35;3.75;;;1.73;;
71423;SDS011;59240;51.370;-0.486;2023-07-24T02:58:32;6.13;;;1.98;;
71423;SDS011;59240;51.370;-0.486;2023-07-24T03:03:28;6.78;;;2.38;;
71423;SDS011;59240;51.370;-0.486;2023-07-24T03:08:26;5.25;;;1.75;;
71423;SDS011;59240;51.370;-0.486;2023-07-24T03:13:23;5.13;;;2.05;;
71423;SDS011;59240;51.370;-0.486;2023-07-24T03:18:20;2.42;;;1.77;;
71423;SDS011;59240;51.370;-0.486;2023-07-24T03:23:17;6.07;;;2.03;;
71423;SDS011;59240;51.370;-0.486;2023-07-24T03:28:14;3.83;;;1.65;;
71423;SDS011;59240;51.370;-0.486;2023-07-24T03:33:11;8.48;;;1.77;;
71423;SDS011;59240;51.370;-0.486;2023-07-24T03:38:08;5.22;;;1.55;;
71423;SDS011;59240;51.370;-0.486;2023-07-24T03:43:05;3.95;;;1.80;;
71423;SDS011;59240;51.370;-0.486;2023-07-24T03:48:02;3.35;;;1.88;;
71423;SDS011;59240;51.370;-0.486;2023-07-24T03:52:59;3.00;;;1.30;;
71423;SDS011;59240;51.370;-0.486;2023-07-24T03:57:55;4.05;;;1.50;;
71423;SDS011;59240;51.370;-0.486;2023-07-24T04:02:52;9.27;;;2.25;;
71423;SDS011;59240;51.370;-0.486;2023-07-24T04:07:49;3.25;;;1.70;;
71423;SDS011;59240;51.370;-0.486;2023-07-24T04:12:46;4.85;;;1.73;;
71423;SDS011;59240;51.370;-0.486;2023-07-24T04:17:43;4.25;;;1.92;;
71423;SDS011;59240;51.370;-0.486;2023-07-24T04:22:40;5.97;;;2.05;;
71423;SDS011;59240;51.370;-0.486;2023-07-24T04:27:37;6.68;;;2.03;;
71423;SDS011;59240;51.370;-0.486;2023-07-24T04:32:34;6.35;;;1.85;;
71423;SDS011;59240;51.370;-0.486;2023-07-24T04:37:31;4.20;;;1.98;;
71423;SDS011;59240;51.370;-0.486;2023-07-24T04:42:28;5.32;;;1.92;;
71423;SDS011;59240;51.370;-0.486;2023-07-24T04:47:25;5.53;;;1.85;;
71423;SDS011;59240;51.370;-0.486;2023-07-24T04:52:22;3.80;;;1.88;;
71423;SDS011;59240;51.370;-0.486;2023-07-24T04:57:18;3.38;;;2.10;;
71423;SDS011;59240;51.370;-0.486;2023-07-24T05:02:15;2.58;;;1.52;;
71423;SDS011;59240;51.370;-0.486;2023-07-24T05:07:12;3.75;;;1.80;;
71423;SDS011;59240;51.370;-0.486;2023-07-24T05:12:09;4.55;;;2.15;;
71423;SDS011;59240;51.370;-0.486;2023-07-24T05:17:06;12.05;;;2.08;;
71423;SDS011;59240;51.370;-0.486;2023-07-24T05:22:03;7.43;;;2.03;;
71423;SDS011;59240;51.370;-0.486;2023-07-24T05:27:01;9.32;;;2.50;;
71423;SDS011;59240;51.370;-0.486;2023-07-24T05:31:57;6.68;;;2.05;;
71423;SDS011;59240;51.370;-0.486;2023-07-24T05:36:55;7.80;;;2.95;;
71423;SDS011;59240;51.370;-0.486;2023-07-24T05:41:52;5.65;;;2.30;;
71423;SDS011;59240;51.370;-0.486;2023-07-24T05:46:49;3.33;;;1.48;;
71423;SDS011;59240;51.370;-0.486;2023-07-24T05:51:45;5.72;;;2.03;;
71423;SDS011;59240;51.370;-0.486;2023-07-24T05:56:42;7.57;;;1.95;;
71423;SDS011;59240;51.370;-0.486;2023-07-24T06:01:39;3.90;;;1.73;;
71423;SDS011;59240;51.370;-0.486;2023-07-24T06:06:36;2.42;;;1.55;;
71423;SDS011;59240;51.370;-0.486;2023-07-24T06:11:33;6.35;;;2.38;;
71423;SDS011;59240;51.370;-0.486;2023-07-24T06:16:30;8.15;;;2.17;;
71423;SDS011;59240;51.370;-0.486;2023-07-24T06:21:30;4.57;;;2.60;;
71423;SDS011;59240;51.370;-0.486;2023-07-24T06:26:27;6.13;;;2.42;;
71423;SDS011;59240;51.370;-0.486;2023-07-24T06:31:24;3.83;;;1.80;;
71423;SDS011;59240;51.370;-0.486;2023-07-24T06:36:21;5.45;;;2.00;;
71423;SDS011;59240;51.370;-0.486;2023-07-24T06:41:18;5.03;;;2.00;;
71423;SDS011;59240;51.370;-0.486;2023-07-24T06:46:19;4.32;;;1.98;;
71423;SDS011;59240;51.370;-0.486;2023-07-24T06:51:17;5.53;;;1.90;;
71423;SDS011;59240;51.370;-0.486;2023-07-24T06:56:14;5.60;;;1.55;;
71423;SDS011;59240;51.370;-0.486;2023-07-24T07:01:11;2.25;;;1.27;;
71423;SDS011;59240;51.370;-0.486;2023-07-24T07:06:09;3.72;;;1.92;;
71423;SDS011;59240;51.370;-0.486;2023-07-24T07:11:12;7.38;;;2.50;;
71423;SDS011;59240;51.370;-0.486;2023-07-24T07:16:08;2.97;;;1.55;;
71423;SDS011;59240;51.370;-0.486;2023-07-24T07:21:17;7.97;;;1.95;;
71423;SDS011;59240;51.370;-0.486;2023-07-24T07:26:14;6.53;;;2.10;;
71423;SDS011;59240;51.370;-0.486;2023-07-24T07:31:21;5.78;;;2.00;;
71423;SDS011;59240;51.370;-0.486;2023-07-24T07:36:18;5.32;;;2.08;;
71423;SDS011;59240;51.370;-0.486;2023-07-24T07:41:15;7.05;;;2.50;;
71423;SDS011;59240;51.370;-0.486;2023-07-24T07:46:15;5.63;;;2.33;;
71423;SDS011;59240;51.370;-0.486;2023-07-24T07:51:12;4.38;;;2.05;;
71423;SDS011;59240;51.370;-0.486;2023-07-24T07:56:11;4.63;;;2.17;;
71423;SDS011;59240;51.370;-0.486;2023-07-24T08:01:08;4.05;;;2.08;;
71423;SDS011;59240;51.370;-0.486;2023-07-24T08:06:07;6.32;;;2.35;;
71423;SDS011;59240;51.370;-0.486;2023-07-24T08:11:07;7.95;;;2.30;;
71423;SDS011;59240;51.370;-0.486;2023-07-24T08:16:12;5.57;;;2.00;;
71423;SDS011;59240;51.370;-0.486;2023-07-24T08:21:15;3.97;;;1.80;;
71423;SDS011;59240;51.370;-0.486;2023-07-24T08:26:13;4.82;;;2.45;;
71423;SDS011;59240;51.370;-0.486;2023-07-24T08:31:09;5.25;;;2.72;;
71423;SDS011;59240;51.370;-0.486;2023-07-24T08:36:07;2.22;;;1.90;;
71423;SDS011;59240;51.370;-0.486;2023-07-24T08:41:06;0.90;;;0.52;;
71423;SDS011;59240;51.370;-0.486;2023-07-24T08:51:50;0.85;;;0.65;;
71423;SDS011;59240;51.370;-0.486;2023-07-24T08:57:02;1.58;;;0.65;;
71423;SDS011;59240;51.370;-0.486;2023-07-24T09:08:40;0.63;;;0.45;;
71423;SDS011;59240;51.370;-0.486;2023-07-24T09:14:01;1.77;;;0.63;;
71423;SDS011;59240;51.370;-0.486;2023-07-24T09:19:16;1.85;;;0.50;;
71423;SDS011;59240;51.370;-0.486;2023-07-24T09:24:22;0.50;;;0.32;;
71423;SDS011;59240;51.370;-0.486;2023-07-24T09:29:34;0.30;;;0.30;;
71423;SDS011;59240;51.370;-0.486;2023-07-24T09:34:34;0.30;;;0.28;;
71423;SDS011;59240;51.370;-0.486;2023-07-24T09:39:30;0.73;;;0.40;;
71423;SDS011;59240;51.370;-0.486;2023-07-24T09:44:27;0.40;;;0.30;;
71423;SDS011;59240;51.370;-0.486;2023-07-24T09:49:45;0.52;;;0.30;;
71423;SDS011;59240;51.370;-0.486;2023-07-24T09:54:55;0.98;;;0.30;;
71423;SDS011;59240;51.370;-0.486;2023-07-24T09:59:56;2.17;;;0.80;;
71423;SDS011;59240;51.370;-0.486;2023-07-24T10:04:53;2.38;;;0.65;;
71423;SDS011;59240;51.370;-0.486;2023-07-24T10:09:53;0.40;;;0.20;;
71423;SDS011;59240;51.370;-0.486;2023-07-24T10:14:51;1.42;;;0.30;;
71423;SDS011;59240;51.370;-0.486;2023-07-24T10:19:48;0.43;;;0.20;;
71423;SDS011;59240;51.370;-0.486;2023-07-24T10:24:51;1.25;;;0.30;;
71423;SDS011;59240;51.370;-0.486;2023-07-24T10:41:10;0.10;;;0.10;;
71423;SDS011;59240;51.370;-0.486;2023-07-24T10:46:16;0.50;;;0.20;;
71423;SDS011;59240;51.370;-0.486;2023-07-24T10:51:15;0.68;;;0.50;;
71423;SDS011;59240;51.370;-0.486;2023-07-24T10:56:16;0.77;;;0.30;;
71423;SDS011;59240;51.370;-0.486;2023-07-24T11:01:13;1.10;;;0.30;;
71423;SDS011;59240;51.370;-0.486;2023-07-24T11:06:14;0.77;;;0.50;;
71423;SDS011;59240;51.370;-0.486;2023-07-24T11:11:14;0.77;;;0.40;;
71423;SDS011;59240;51.370;-0.486;2023-07-24T11:16:25;1.60;;;0.40;;
71423;SDS011;59240;51.370;-0.486;2023-07-24T11:21:26;0.55;;;0.40;;
71423;SDS011;59240;51.370;-0.486;2023-07-24T11:26:24;1.08;;;0.40;;
71423;SDS011;59240;51.370;-0.486;2023-07-24T11:31:25;0.47;;;0.40;;
71423;SDS011;59240;51.370;-0.486;2023-07-24T11:36:27;0.40;;;0.30;;
71423;SDS011;59240;51.370;-0.486;2023-07-24T11:41:29;0.98;;;0.30;;
71423;SDS011;59240;51.370;-0.486;2023-07-24T11:46:44;0.40;;;0.40;;
71423;SDS011;59240;51.370;-0.486;2023-07-24T11:51:53;0.85;;;0.50;;
71423;SDS011;59240;51.370;-0.486;2023-07-24T11:56:59;1.02;;;0.50;;
71423;SDS011;59240;51.370;-0.486;2023-07-24T12:02:02;1.25;;;0.70;;
71423;SDS011;59240;51.370;-0.486;2023-07-24T12:07:03;0.80;;;0.70;;
71423;SDS011;59240;51.370;-0.486;2023-07-24T12:12:08;0.95;;;0.70;;
71423;SDS011;59240;51.370;-0.486;2023-07-24T12:17:21;2.50;;;0.90;;
71423;SDS011;59240;51.370;-0.486;2023-07-24T12:22:28;2.60;;;1.02;;
71423;SDS011;59240;51.370;-0.486;2023-07-24T12:27:45;2.72;;;0.75;;
71423;SDS011;59240;51.370;-0.486;2023-07-24T12:32:48;1.02;;;0.68;;
71423;SDS011;59240;51.370;-0.486;2023-07-24T12:38:21;0.95;;;0.65;;
71423;SDS011;59240;51.370;-0.486;2023-07-24T12:43:17;1.90;;;0.50;;
71423;SDS011;59240;51.370;-0.486;2023-07-24T12:48:15;0.75;;;0.40;;
71423;SDS011;59240;51.370;-0.486;2023-07-24T12:53:20;2.50;;;0.75;;
71423;SDS011;59240;51.370;-0.486;2023-07-24T12:58:32;1.50;;;0.75;;
71423;SDS011;59240;51.370;-0.486;2023-07-24T13:03:30;0.75;;;0.60;;
71423;SDS011;59240;51.370;-0.486;2023-07-24T13:08:36;1.38;;;0.60;;
71423;SDS011;59240;51.370;-0.486;2023-07-24T13:13:44;2.55;;;0.70;;
71423;SDS011;59240;51.370;-0.486;2023-07-24T13:18:44;1.85;;;0.60;;
71423;SDS011;59240;51.370;-0.486;2023-07-24T13:23:42;1.23;;;0.70;;
71423;SDS011;59240;51.370;-0.486;2023-07-24T13:29:21;2.42;;;0.88;;
71423;SDS011;59240;51.370;-0.486;2023-07-24T13:34:51;0.60;;;0.47;;
71423;SDS011;59240;51.370;-0.486;2023-07-24T13:39:52;2.40;;;0.85;;
71423;SDS011;59240;51.370;-0.486;2023-07-24T13:44:50;1.25;;;0.70;;
71423;SDS011;59240;51.370;-0.486;2023-07-24T13:49:57;3.13;;;0.82;;
71423;SDS011;59240;51.370;-0.486;2023-07-24T13:55:02;1.20;;;0.80;;
71423;SDS011;59240;51.370;-0.486;2023-07-24T14:00:25;2.38;;;1.02;;
71423;SDS011;59240;51.370;-0.486;2023-07-24T14:05:32;1.60;;;0.90;;
71423;SDS011;59240;51.370;-0.486;2023-07-24T14:10:35;1.88;;;1.10;;
71423;SDS011;59240;51.370;-0.486;2023-07-24T14:15:41;3.03;;;0.80;;
71423;SDS011;59240;51.370;-0.486;2023-07-24T14:20:41;2.78;;;0.90;;
71423;SDS011;59240;51.370;-0.486;2023-07-24T14:25:41;1.50;;;0.90;;
71423;SDS011;59240;51.370;-0.486;2023-07-24T14:30:47;3.55;;;1.08;;
71423;SDS011;59240;51.370;-0.486;2023-07-24T14:36:34;2.78;;;0.95;;
71423;SDS011;59240;51.370;-0.486;2023-07-24T14:41:50;1.80;;;1.10;;
71423;SDS011;59240;51.370;-0.486;2023-07-24T14:46:50;2.38;;;1.10;;
71423;SDS011;59240;51.370;-0.486;2023-07-24T14:51:47;4.13;;;1.00;;
71423;SDS011;59240;51.370;-0.486;2023-07-24T14:56:44;3.72;;;1.20;;
71423;SDS011;59240;51.370;-0.486;2023-07-24T15:02:00;4.45;;;1.50;;
71423;SDS011;59240;51.370;-0.486;2023-07-24T15:06:59;2.67;;;1.00;;
71423;SDS011;59240;51.370;-0.486;2023-07-24T15:12:01;1.75;;;0.98;;
71423;SDS011;59240;51.370;-0.486;2023-07-24T15:17:05;1.92;;;1.08;;
71423;SDS011;59240;51.370;-0.486;2023-07-24T15:22:06;1.92;;;1.00;;
71423;SDS011;59240;51.370;-0.486;2023-07-24T15:33:04;2.22;;;0.93;;
71423;SDS011;59240;51.370;-0.486;2023-07-24T15:51:09;3.08;;;1.70;;
71423;SDS011;59240;51.370;-0.486;2023-07-24T15:56:26;4.70;;;1.38;;
71423;SDS011;59240;51.370;-0.486;2023-07-24T16:01:29;3.85;;;1.30;;
71423;SDS011;59240;51.370;-0.486;2023-07-24T16:13:16;3.10;;;1.02;;
71423;SDS011;59240;51.370;-0.486;2023-07-24T16:24:24;2.33;;;0.90;;
71423;SDS011;59240;51.370;-0.486;2023-07-24T16:29:24;3.38;;;1.00;;
71423;SDS011;59240;51.370;-0.486;2023-07-24T16:34:30;1.88;;;1.00;;
71423;SDS011;59240;51.370;-0.486;2023-07-24T16:39:35;3.08;;;0.90;;
71423;SDS011;59240;51.370;-0.486;2023-07-24T16:44:57;1.38;;;1.00;;
71423;SDS011;59240;51.370;-0.486;2023-07-24T16:56:18;1.48;;;0.80;;
71423;SDS011;59240;51.370;-0.486;2023-07-24T17:01:29;1.17;;;0.73;;
71423;SDS011;59240;51.370;-0.486;2023-07-24T17:06:27;2.55;;;1.00;;
71423;SDS011;59240;51.370;-0.486;2023-07-24T17:17:02;5.13;;;1.20;;
71423;SDS011;59240;51.370;-0.486;2023-07-24T17:22:00;3.28;;;1.52;;
71423;SDS011;59240;51.370;-0.486;2023-07-24T17:26:56;1.55;;;1.10;;
71423;SDS011;59240;51.370;-0.486;2023-07-24T17:31:56;2.95;;;1.13;;
71423;SDS011;59240;51.370;-0.486;2023-07-24T17:36:55;2.65;;;1.27;;
71423;SDS011;59240;51.370;-0.486;2023-07-24T17:41:52;3.03;;;1.48;;
71423;SDS011;59240;51.370;-0.486;2023-07-24T17:46:56;3.72;;;2.33;;
71423;SDS011;59240;51.370;-0.486;2023-07-24T17:51:59;6.07;;;2.90;;
71423;SDS011;59240;51.370;-0.486;2023-07-24T17:56:56;5.10;;;2.40;;
71423;SDS011;59240;51.370;-0.486;2023-07-24T18:01:55;4.50;;;2.90;;
71423;SDS011;59240;51.370;-0.486;2023-07-24T18:06:56;3.83;;;1.90;;
71423;SDS011;59240;51.370;-0.486;2023-07-24T18:12:04;8.43;;;2.83;;
71423;SDS011;59240;51.370;-0.486;2023-07-24T18:17:04;4.30;;;2.35;;
71423;SDS011;59240;51.370;-0.486;2023-07-24T18:22:01;6.07;;;2.47;;
71423;SDS011;59240;51.370;-0.486;2023-07-24T18:26:59;4.03;;;2.47;;
71423;SDS011;59240;51.370;-0.486;2023-07-24T18:31:56;5.68;;;2.42;;
71423;SDS011;59240;51.370;-0.486;2023-07-24T18:36:53;6.70;;;3.15;;
71423;SDS011;59240;51.370;-0.486;2023-07-24T18:41:50;11.05;;;3.80;;
71423;SDS011;59240;51.370;-0.486;2023-07-24T18:46:55;6.60;;;3.00;;
71423;SDS011;59240;51.370;-0.486;2023-07-24T18:52:00;5.18;;;1.90;;
71423;SDS011;59240;51.370;-0.486;2023-07-24T18:57:05;11.60;;;3.92;;
71423;SDS011;59240;51.370;-0.486;2023-07-24T19:02:02;10.07;;;4.07;;
71423;SDS011;59240;51.370;-0.486;2023-07-24T19:07:02;4.57;;;2.67;;
71423;SDS011;59240;51.370;-0.486;2023-07-24T19:12:02;4.68;;;2.72;;
71423;SDS011;59240;51.370;-0.486;2023-07-24T19:17:06;5.40;;;2.83;;
71423;SDS011;59240;51.370;-0.486;2023-07-24T19:22:45;12.45;;;6.05;;
71423;SDS011;59240;51.370;-0.486;2023-07-24T19:27:44;4.22;;;3.20;;
71423;SDS011;59240;51.370;-0.486;2023-07-24T19:32:56;6.90;;;2.30;;
71423;SDS011;59240;51.370;-0.486;2023-07-24T19:38:00;8.55;;;2.47;;
71423;SDS011;59240;51.370;-0.486;2023-07-24T19:43:04;9.35;;;2.53;;
71423;SDS011;59240;51.370;-0.486;2023-07-24T19:54:04;4.93;;;2.15;;
71423;SDS011;59240;51.370;-0.486;2023-07-24T19:59:08;4.88;;;1.85;;
71423;SDS011;59240;51.370;-0.486;2023-07-24T20:04:08;2.92;;;2.38;;
71423;SDS011;59240;51.370;-0.486;2023-07-24T20:09:05;4.88;;;2.28;;
71423;SDS011;59240;51.370;-0.486;2023-07-24T20:14:05;6.25;;;2.20;;
71423;SDS011;59240;51.370;-0.486;2023-07-24T20:19:13;6.43;;;1.90;;
71423;SDS011;59240;51.370;-0.486;2023-07-24T20:24:11;6.93;;;2.35;;
71423;SDS011;59240;51.370;-0.486;2023-07-24T20:34:18;6.45;;;1.20;;
71423;SDS011;59240;51.370;-0.486;2023-07-24T20:39:16;5.63;;;2.80;;
71423;SDS011;59240;51.370;-0.486;2023-07-24T20:44:24;3.13;;;1.20;;
71423;SDS011;59240;51.370;-0.486;2023-07-24T20:49:21;3.80;;;2.00;;
71423;SDS011;59240;51.370;-0.486;2023-07-24T20:54:21;4.57;;;1.60;;
71423;SDS011;59240;51.370;-0.486;2023-07-24T20:59:17;5.80;;;1.48;;
71423;SDS011;59240;51.370;-0.486;2023-07-24T21:04:14;5.68;;;1.90;;
71423;SDS011;59240;51.370;-0.486;2023-07-24T21:09:38;3.97;;;1.65;;
71423;SDS011;59240;51.370;-0.486;2023-07-24T21:14:35;5.47;;;2.00;;
71423;SDS011;59240;51.370;-0.486;2023-07-24T21:19:34;6.97;;;1.73;;
71423;SDS011;59240;51.370;-0.486;2023-07-24T21:25:32;3.45;;;1.88;;
71423;SDS011;59240;51.370;-0.486;2023-07-24T21:30:31;5.40;;;1.67;;
71423;SDS011;59240;51.370;-0.486;2023-07-24T21:35:34;4.35;;;1.67;;
71423;SDS011;59240;51.370;-0.486;2023-07-24T21:40:31;3.30;;;1.90;;
71423;SDS011;59240;51.370;-0.486;2023-07-24T21:45:31;6.95;;;2.33;;
71423;SDS011;59240;51.370;-0.486;2023-07-24T21:50:28;5.90;;;1.75;;
71423;SDS011;59240;51.370;-0.486;2023-07-24T21:55:27;5.28;;;2.60;;
71423;SDS011;59240;51.370;-0.486;2023-07-24T22:00:26;6.60;;;2.80;;
71423;SDS011;59240;51.370;-0.486;2023-07-24T22:05:23;5.10;;;2.60;;
71423;SDS011;59240;51.370;-0.486;2023-07-24T22:10:22;4.97;;;2.00;;
71423;SDS011;59240;51.370;-0.486;2023-07-24T22:15:20;8.45;;;2.75;;
71423;SDS011;59240;51.370;-0.486;2023-07-24T22:20:21;5.97;;;1.83;;
71423;SDS011;59240;51.370;-0.486;2023-07-24T22:25:38;3.78;;;2.40;;
71423;SDS011;59240;51.370;-0.486;2023-07-24T22:30:37;5.78;;;2.15;;
71423;SDS011;59240;51.370;-0.486;2023-07-24T22:35:34;6.13;;;2.28;;
71423;SDS011;59240;51.370;-0.486;2023-07-24T22:40:31;5.78;;;2.60;;
71423;SDS011;59240;51.370;-0.486;2023-07-24T22:45:28;5.97;;;2.33;;
71423;SDS011;59240;51.370;-0.486;2023-07-24T22:50:25;6.15;;;2.17;;
71423;SDS011;59240;51.370;-0.486;2023-07-24T22:55:25;4.82;;;2.13;;
71423;SDS011;59240;51.370;-0.486;2023-07-24T23:00:21;4.32;;;2.47;;
71423;SDS011;59240;51.370;-0.486;2023-07-24T23:05:18;5.90;;;2.40;;
71423;SDS011;59240;51.370;-0.486;2023-07-24T23:10:15;4.07;;;2.63;;
71423;SDS011;59240;51.370;-0.486;2023-07-24T23:15:12;5.28;;;2.60;;
71423;SDS011;59240;51.370;-0.486;2023-07-24T23:20:09;3.67;;;2.90;;
71423;SDS011;59240;51.370;-0.486;2023-07-24T23:25:06;4.50;;;2.42;;
71423;SDS011;59240;51.370;-0.486;2023-07-24T23:30:03;4.53;;;2.78;;
71423;SDS011;59240;51.370;-0.486;2023-07-24T23:35:01;5.10;;;2.90;;
71423;SDS011;59240;51.370;-0.486;2023-07-24T23:39:58;4.72;;;2.50;;
71423;SDS011;59240;51.370;-0.486;2023-07-24T23:44:55;6.68;;;2.72;;
71423;SDS011;59240;51.370;-0.486;2023-07-24T23:49:52;5.82;;;2.72;;
71423;SDS011;59240;51.370;-0.486;2023-07-24T23:54:49;5.85;;;3.08;;
71423;SDS011;59240;51.370;-0.486;2023-07-24T23:59:46;6.63;;;2.40;;
